sensor_id;sensor_type;location;lat;lon;timestamp;temperature;humidity
20658;DHT22;10488;50.846;4.078;2024-02-04T00:00:34;11.20;99.90
20658;DHT22;10488;50.846;4.078;2024-02-04T00:03:00;11.30;99.90
20658;DHT22;10488;50.846;4.078;2024-02-04T00:05:26;11.20;99.90
20658;DHT22;10488;50.846;4.078;2024-02-04T00:07:51;11.30;99.90
20658;DHT22;10488;50.846;4.078;2024-02-04T00:10:17;11.20;99.90
20658;DHT22;10488;50.846;4.078;2024-02-04T00:12:44;11.20;99.90
20658;DHT22;10488;50.846;4.078;2024-02-04T00:15:09;11.20;99.90
20658;DHT22;10488;50.846;4.078;2024-02-04T00:17:35;11.10;99.90
20658;DHT22;10488;50.846;4.078;2024-02-04T00:20:02;11.20;99.90
20658;DHT22;10488;50.846;4.078;2024-02-04T00:22:31;11.20;99.90
20658;DHT22;10488;50.846;4.078;2024-02-04T00:24:57;11.20;99.90
20658;DHT22;10488;50.846;4.078;2024-02-04T00:27:28;11.40;99.90
20658;DHT22;10488;50.846;4.078;2024-02-04T00:29:53;11.40;99.90
20658;DHT22;10488;50.846;4.078;2024-02-04T00:32:19;11.10;99.90
20658;DHT22;10488;50.846;4.078;2024-02-04T00:34:44;11.20;99.90
20658;DHT22;10488;50.846;4.078;2024-02-04T00:37:10;11.30;99.90
20658;DHT22;10488;50.846;4.078;2024-02-04T00:39:36;11.30;99.90
20658;DHT22;10488;50.846;4.078;2024-02-04T00:42:01;11.30;99.90
20658;DHT22;10488;50.846;4.078;2024-02-04T00:44:27;11.20;99.90
20658;DHT22;10488;50.846;4.078;2024-02-04T00:46:53;11.30;99.90
20658;DHT22;10488;50.846;4.078;2024-02-04T00:49:18;11.30;99.90
20658;DHT22;10488;50.846;4.078;2024-02-04T00:51:44;11.40;99.90
20658;DHT22;10488;50.846;4.078;2024-02-04T00:54:10;11.20;99.90
20658;DHT22;10488;50.846;4.078;2024-02-04T00:56:35;11.20;99.90
20658;DHT22;10488;50.846;4.078;2024-02-04T00:59:03;11.20;99.90
20658;DHT22;10488;50.846;4.078;2024-02-04T01:01:29;11.20;99.90
20658;DHT22;10488;50.846;4.078;2024-02-04T01:03:54;11.30;99.90
20658;DHT22;10488;50.846;4.078;2024-02-04T01:06:20;11.30;99.90
20658;DHT22;10488;50.846;4.078;2024-02-04T01:08:46;11.40;99.90
20658;DHT22;10488;50.846;4.078;2024-02-04T01:11:11;11.50;99.90
20658;DHT22;10488;50.846;4.078;2024-02-04T01:13:37;11.70;99.90
20658;DHT22;10488;50.846;4.078;2024-02-04T01:16:02;11.50;99.90
20658;DHT22;10488;50.846;4.078;2024-02-04T01:18:28;11.40;99.90
20658;DHT22;10488;50.846;4.078;2024-02-04T01:20:55;11.30;99.90
20658;DHT22;10488;50.846;4.078;2024-02-04T01:23:21;11.30;99.90
20658;DHT22;10488;50.846;4.078;2024-02-04T01:25:47;11.20;99.90
20658;DHT22;10488;50.846;4.078;2024-02-04T01:28:13;11.10;99.90
20658;DHT22;10488;50.846;4.078;2024-02-04T01:30:38;11.30;99.90
20658;DHT22;10488;50.846;4.078;2024-02-04T01:33:04;11.40;99.90
20658;DHT22;10488;50.846;4.078;2024-02-04T01:35:29;11.50;99.90
20658;DHT22;10488;50.846;4.078;2024-02-04T01:37:55;11.50;99.90
20658;DHT22;10488;50.846;4.078;2024-02-04T01:40:21;11.50;99.90
20658;DHT22;10488;50.846;4.078;2024-02-04T01:42:46;11.50;99.90
20658;DHT22;10488;50.846;4.078;2024-02-04T01:45:12;11.40;99.90
20658;DHT22;10488;50.846;4.078;2024-02-04T01:47:38;11.30;99.90
20658;DHT22;10488;50.846;4.078;2024-02-04T01:50:04;11.20;99.90
20658;DHT22;10488;50.846;4.078;2024-02-04T01:52:36;11.10;99.90
20658;DHT22;10488;50.846;4.078;2024-02-04T01:55:04;11.10;99.90
20658;DHT22;10488;50.846;4.078;2024-02-04T01:57:31;11.10;99.90
20658;DHT22;10488;50.846;4.078;2024-02-04T01:59:57;11.10;99.90
20658;DHT22;10488;50.846;4.078;2024-02-04T02:02:25;11.10;99.90
20658;DHT22;10488;50.846;4.078;2024-02-04T02:04:51;11.20;99.90
20658;DHT22;10488;50.846;4.078;2024-02-04T02:07:18;11.20;99.90
20658;DHT22;10488;50.846;4.078;2024-02-04T02:09:46;11.20;99.90
20658;DHT22;10488;50.846;4.078;2024-02-04T02:12:18;11.30;99.90
20658;DHT22;10488;50.846;4.078;2024-02-04T02:14:48;11.40;99.90
20658;DHT22;10488;50.846;4.078;2024-02-04T02:17:17;11.40;99.90
20658;DHT22;10488;50.846;4.078;2024-02-04T02:19:59;11.50;99.90
20658;DHT22;10488;50.846;4.078;2024-02-04T02:22:45;11.40;99.90
20658;DHT22;10488;50.846;4.078;2024-02-04T02:25:13;11.40;99.90
20658;DHT22;10488;50.846;4.078;2024-02-04T02:27:47;11.30;99.90
20658;DHT22;10488;50.846;4.078;2024-02-04T02:30:13;11.20;99.90
20658;DHT22;10488;50.846;4.078;2024-02-04T02:32:38;11.20;99.90
20658;DHT22;10488;50.846;4.078;2024-02-04T02:35:04;11.30;99.90
20658;DHT22;10488;50.846;4.078;2024-02-04T02:40:38;11.40;99.90
20658;DHT22;10488;50.846;4.078;2024-02-04T02:43:05;11.40;99.90
20658;DHT22;10488;50.846;4.078;2024-02-04T02:45:32;11.40;99.90
20658;DHT22;10488;50.846;4.078;2024-02-04T02:47:58;11.30;99.90
20658;DHT22;10488;50.846;4.078;2024-02-04T02:50:24;11.30;99.90
20658;DHT22;10488;50.846;4.078;2024-02-04T02:52:50;11.30;99.90
20658;DHT22;10488;50.846;4.078;2024-02-04T02:55:16;11.30;99.90
20658;DHT22;10488;50.846;4.078;2024-02-04T02:57:41;11.30;99.90
20658;DHT22;10488;50.846;4.078;2024-02-04T03:00:08;11.30;99.90
20658;DHT22;10488;50.846;4.078;2024-02-04T03:02:34;11.50;99.90
20658;DHT22;10488;50.846;4.078;2024-02-04T03:05:00;11.40;99.90
20658;DHT22;10488;50.846;4.078;2024-02-04T03:07:26;11.40;99.90
20658;DHT22;10488;50.846;4.078;2024-02-04T03:09:53;11.40;99.90
20658;DHT22;10488;50.846;4.078;2024-02-04T03:12:19;11.30;99.90
20658;DHT22;10488;50.846;4.078;2024-02-04T03:14:45;11.40;99.90
20658;DHT22;10488;50.846;4.078;2024-02-04T03:17:10;11.50;99.90
20658;DHT22;10488;50.846;4.078;2024-02-04T03:19:37;11.50;99.90
20658;DHT22;10488;50.846;4.078;2024-02-04T03:22:03;11.20;99.90
20658;DHT22;10488;50.846;4.078;2024-02-04T03:24:28;11.10;99.90
20658;DHT22;10488;50.846;4.078;2024-02-04T03:26:54;11.00;99.90
20658;DHT22;10488;50.846;4.078;2024-02-04T03:29:20;11.00;99.90
20658;DHT22;10488;50.846;4.078;2024-02-04T03:31:45;10.90;99.90
20658;DHT22;10488;50.846;4.078;2024-02-04T03:34:11;10.90;99.90
20658;DHT22;10488;50.846;4.078;2024-02-04T03:36:37;11.00;99.90
20658;DHT22;10488;50.846;4.078;2024-02-04T03:39:04;10.90;99.90
20658;DHT22;10488;50.846;4.078;2024-02-04T03:41:29;11.00;99.90
20658;DHT22;10488;50.846;4.078;2024-02-04T03:43:55;11.20;99.90
20658;DHT22;10488;50.846;4.078;2024-02-04T03:46:20;11.10;99.90
20658;DHT22;10488;50.846;4.078;2024-02-04T03:48:46;11.10;99.90
20658;DHT22;10488;50.846;4.078;2024-02-04T03:51:16;11.10;99.90
20658;DHT22;10488;50.846;4.078;2024-02-04T03:53:43;11.00;99.90
20658;DHT22;10488;50.846;4.078;2024-02-04T03:56:08;11.10;99.90
20658;DHT22;10488;50.846;4.078;2024-02-04T03:58:34;11.10;99.90
20658;DHT22;10488;50.846;4.078;2024-02-04T04:01:00;11.10;99.90
20658;DHT22;10488;50.846;4.078;2024-02-04T04:03:26;11.00;99.90
20658;DHT22;10488;50.846;4.078;2024-02-04T04:05:53;11.20;99.90
20658;DHT22;10488;50.846;4.078;2024-02-04T04:08:19;11.10;99.90
20658;DHT22;10488;50.846;4.078;2024-02-04T04:10:45;11.10;99.90
20658;DHT22;10488;50.846;4.078;2024-02-04T04:13:11;11.00;99.90
20658;DHT22;10488;50.846;4.078;2024-02-04T04:15:37;11.00;99.90
20658;DHT22;10488;50.846;4.078;2024-02-04T04:18:03;11.00;99.90
20658;DHT22;10488;50.846;4.078;2024-02-04T04:20:28;11.00;99.90
20658;DHT22;10488;50.846;4.078;2024-02-04T04:22:54;11.10;99.90
20658;DHT22;10488;50.846;4.078;2024-02-04T04:25:20;11.20;99.90
20658;DHT22;10488;50.846;4.078;2024-02-04T04:27:45;11.00;99.90
20658;DHT22;10488;50.846;4.078;2024-02-04T04:30:11;11.10;99.90
20658;DHT22;10488;50.846;4.078;2024-02-04T04:32:37;11.00;99.90
20658;DHT22;10488;50.846;4.078;2024-02-04T04:35:03;10.90;99.90
20658;DHT22;10488;50.846;4.078;2024-02-04T04:37:28;11.00;99.90
20658;DHT22;10488;50.846;4.078;2024-02-04T04:39:54;10.90;99.90
20658;DHT22;10488;50.846;4.078;2024-02-04T04:42:20;10.90;99.90
20658;DHT22;10488;50.846;4.078;2024-02-04T04:44:45;11.00;99.90
20658;DHT22;10488;50.846;4.078;2024-02-04T04:47:12;11.10;99.90
20658;DHT22;10488;50.846;4.078;2024-02-04T04:49:37;11.20;99.90
20658;DHT22;10488;50.846;4.078;2024-02-04T04:52:03;11.20;99.90
20658;DHT22;10488;50.846;4.078;2024-02-04T04:54:29;11.20;99.90
20658;DHT22;10488;50.846;4.078;2024-02-04T04:56:54;11.20;99.90
20658;DHT22;10488;50.846;4.078;2024-02-04T04:59:20;11.00;99.90
20658;DHT22;10488;50.846;4.078;2024-02-04T05:01:47;11.10;99.90
20658;DHT22;10488;50.846;4.078;2024-02-04T05:04:13;11.10;99.90
20658;DHT22;10488;50.846;4.078;2024-02-04T05:06:39;11.10;99.90
20658;DHT22;10488;50.846;4.078;2024-02-04T05:09:04;11.30;99.90
20658;DHT22;10488;50.846;4.078;2024-02-04T05:11:31;11.20;99.90
20658;DHT22;10488;50.846;4.078;2024-02-04T05:13:56;11.10;99.90
20658;DHT22;10488;50.846;4.078;2024-02-04T05:16:22;11.30;99.90
20658;DHT22;10488;50.846;4.078;2024-02-04T05:18:47;11.30;99.90
20658;DHT22;10488;50.846;4.078;2024-02-04T05:21:13;11.30;99.90
20658;DHT22;10488;50.846;4.078;2024-02-04T05:23:39;11.30;99.90
20658;DHT22;10488;50.846;4.078;2024-02-04T05:26:05;11.20;99.90
20658;DHT22;10488;50.846;4.078;2024-02-04T05:28:31;11.10;99.90
20658;DHT22;10488;50.846;4.078;2024-02-04T05:30:57;11.30;99.90
20658;DHT22;10488;50.846;4.078;2024-02-04T05:33:23;11.20;99.90
20658;DHT22;10488;50.846;4.078;2024-02-04T05:35:48;11.40;99.90
20658;DHT22;10488;50.846;4.078;2024-02-04T05:38:16;11.30;99.90
20658;DHT22;10488;50.846;4.078;2024-02-04T05:40:42;11.20;99.90
20658;DHT22;10488;50.846;4.078;2024-02-04T05:43:08;11.20;99.90
20658;DHT22;10488;50.846;4.078;2024-02-04T05:45:38;11.20;99.90
20658;DHT22;10488;50.846;4.078;2024-02-04T05:48:10;11.20;99.90
20658;DHT22;10488;50.846;4.078;2024-02-04T05:50:36;11.20;99.90
20658;DHT22;10488;50.846;4.078;2024-02-04T05:53:02;11.20;99.90
20658;DHT22;10488;50.846;4.078;2024-02-04T05:55:28;11.10;99.90
20658;DHT22;10488;50.846;4.078;2024-02-04T05:57:54;11.10;99.90
20658;DHT22;10488;50.846;4.078;2024-02-04T06:00:20;11.00;99.90
20658;DHT22;10488;50.846;4.078;2024-02-04T06:02:46;11.10;99.90
20658;DHT22;10488;50.846;4.078;2024-02-04T06:05:12;11.20;99.90
20658;DHT22;10488;50.846;4.078;2024-02-04T06:07:39;11.10;99.90
20658;DHT22;10488;50.846;4.078;2024-02-04T06:10:08;11.00;99.90
20658;DHT22;10488;50.846;4.078;2024-02-04T06:12:33;11.00;99.90
20658;DHT22;10488;50.846;4.078;2024-02-04T06:14:59;11.00;99.90
20658;DHT22;10488;50.846;4.078;2024-02-04T06:17:25;11.00;99.90
20658;DHT22;10488;50.846;4.078;2024-02-04T06:19:50;11.00;99.90
20658;DHT22;10488;50.846;4.078;2024-02-04T06:22:16;11.10;99.90
20658;DHT22;10488;50.846;4.078;2024-02-04T06:24:41;10.90;99.90
20658;DHT22;10488;50.846;4.078;2024-02-04T06:27:11;10.90;99.90
20658;DHT22;10488;50.846;4.078;2024-02-04T06:29:37;11.10;99.90
20658;DHT22;10488;50.846;4.078;2024-02-04T06:32:05;11.00;99.90
20658;DHT22;10488;50.846;4.078;2024-02-04T06:34:30;11.00;99.90
20658;DHT22;10488;50.846;4.078;2024-02-04T06:36:56;11.00;99.90
20658;DHT22;10488;50.846;4.078;2024-02-04T06:39:21;11.10;99.90
20658;DHT22;10488;50.846;4.078;2024-02-04T06:41:47;11.00;99.90
20658;DHT22;10488;50.846;4.078;2024-02-04T06:44:13;11.10;99.90
20658;DHT22;10488;50.846;4.078;2024-02-04T06:46:39;11.10;99.90
20658;DHT22;10488;50.846;4.078;2024-02-04T06:49:04;11.10;99.90
20658;DHT22;10488;50.846;4.078;2024-02-04T06:51:30;11.10;99.90
20658;DHT22;10488;50.846;4.078;2024-02-04T06:53:55;11.10;99.90
20658;DHT22;10488;50.846;4.078;2024-02-04T06:56:21;11.10;99.90
20658;DHT22;10488;50.846;4.078;2024-02-04T06:58:47;11.20;99.90
20658;DHT22;10488;50.846;4.078;2024-02-04T07:01:12;11.20;99.90
20658;DHT22;10488;50.846;4.078;2024-02-04T07:03:38;11.20;99.90
20658;DHT22;10488;50.846;4.078;2024-02-04T07:06:04;11.10;99.90
20658;DHT22;10488;50.846;4.078;2024-02-04T07:08:29;11.10;99.90
20658;DHT22;10488;50.846;4.078;2024-02-04T07:10:55;11.10;99.90
20658;DHT22;10488;50.846;4.078;2024-02-04T07:13:21;11.10;99.90
20658;DHT22;10488;50.846;4.078;2024-02-04T07:15:47;11.10;99.90
20658;DHT22;10488;50.846;4.078;2024-02-04T07:18:13;11.00;99.90
20658;DHT22;10488;50.846;4.078;2024-02-04T07:20:39;11.10;99.90
20658;DHT22;10488;50.846;4.078;2024-02-04T07:23:05;11.20;99.90
20658;DHT22;10488;50.846;4.078;2024-02-04T07:25:31;11.30;99.90
20658;DHT22;10488;50.846;4.078;2024-02-04T07:27:57;11.30;99.90
20658;DHT22;10488;50.846;4.078;2024-02-04T07:30:24;11.30;99.90
20658;DHT22;10488;50.846;4.078;2024-02-04T07:32:49;11.30;99.90
20658;DHT22;10488;50.846;4.078;2024-02-04T07:35:16;11.20;99.90
20658;DHT22;10488;50.846;4.078;2024-02-04T07:37:41;11.30;99.90
20658;DHT22;10488;50.846;4.078;2024-02-04T07:40:08;11.30;99.90
20658;DHT22;10488;50.846;4.078;2024-02-04T07:42:33;11.30;99.90
20658;DHT22;10488;50.846;4.078;2024-02-04T07:44:59;11.20;99.90
20658;DHT22;10488;50.846;4.078;2024-02-04T07:47:24;11.30;99.90
20658;DHT22;10488;50.846;4.078;2024-02-04T07:49:51;11.30;99.90
20658;DHT22;10488;50.846;4.078;2024-02-04T07:52:17;11.30;99.90
20658;DHT22;10488;50.846;4.078;2024-02-04T07:54:42;11.30;99.90
20658;DHT22;10488;50.846;4.078;2024-02-04T07:57:12;11.30;99.90
20658;DHT22;10488;50.846;4.078;2024-02-04T07:59:37;11.20;99.90
20658;DHT22;10488;50.846;4.078;2024-02-04T08:02:03;11.20;99.90
20658;DHT22;10488;50.846;4.078;2024-02-04T08:04:29;11.20;99.90
20658;DHT22;10488;50.846;4.078;2024-02-04T08:06:54;11.20;99.90
20658;DHT22;10488;50.846;4.078;2024-02-04T08:09:20;11.30;99.90
20658;DHT22;10488;50.846;4.078;2024-02-04T08:11:46;11.30;99.90
20658;DHT22;10488;50.846;4.078;2024-02-04T08:14:12;11.20;99.90
20658;DHT22;10488;50.846;4.078;2024-02-04T08:16:40;11.00;99.90
20658;DHT22;10488;50.846;4.078;2024-02-04T08:19:06;11.10;99.90
20658;DHT22;10488;50.846;4.078;2024-02-04T08:21:32;11.20;99.90
20658;DHT22;10488;50.846;4.078;2024-02-04T08:23:58;11.20;99.90
20658;DHT22;10488;50.846;4.078;2024-02-04T08:26:24;11.10;99.90
20658;DHT22;10488;50.846;4.078;2024-02-04T08:28:50;11.20;99.90
20658;DHT22;10488;50.846;4.078;2024-02-04T08:31:15;11.20;99.90
20658;DHT22;10488;50.846;4.078;2024-02-04T08:33:41;11.30;99.90
20658;DHT22;10488;50.846;4.078;2024-02-04T08:36:07;11.40;99.90
20658;DHT22;10488;50.846;4.078;2024-02-04T08:38:36;11.40;99.90
20658;DHT22;10488;50.846;4.078;2024-02-04T08:41:03;11.50;99.90
20658;DHT22;10488;50.846;4.078;2024-02-04T08:43:28;11.60;99.90
20658;DHT22;10488;50.846;4.078;2024-02-04T08:45:54;11.60;99.90
20658;DHT22;10488;50.846;4.078;2024-02-04T08:48:20;11.40;99.90
20658;DHT22;10488;50.846;4.078;2024-02-04T08:50:45;11.40;99.90
20658;DHT22;10488;50.846;4.078;2024-02-04T08:53:11;11.40;99.90
20658;DHT22;10488;50.846;4.078;2024-02-04T08:55:36;11.50;99.90
20658;DHT22;10488;50.846;4.078;2024-02-04T08:58:02;11.60;99.90
20658;DHT22;10488;50.846;4.078;2024-02-04T09:00:28;11.50;99.90
20658;DHT22;10488;50.846;4.078;2024-02-04T09:02:53;11.50;99.90
20658;DHT22;10488;50.846;4.078;2024-02-04T09:05:19;11.40;99.90
20658;DHT22;10488;50.846;4.078;2024-02-04T09:07:45;11.40;99.90
20658;DHT22;10488;50.846;4.078;2024-02-04T09:10:11;11.40;99.90
20658;DHT22;10488;50.846;4.078;2024-02-04T09:12:38;11.50;99.90
20658;DHT22;10488;50.846;4.078;2024-02-04T09:15:04;11.40;99.90
20658;DHT22;10488;50.846;4.078;2024-02-04T09:17:30;11.60;99.90
20658;DHT22;10488;50.846;4.078;2024-02-04T09:19:58;11.70;99.90
20658;DHT22;10488;50.846;4.078;2024-02-04T09:22:24;11.70;99.90
20658;DHT22;10488;50.846;4.078;2024-02-04T09:24:50;11.60;99.90
20658;DHT22;10488;50.846;4.078;2024-02-04T09:27:15;11.60;99.90
20658;DHT22;10488;50.846;4.078;2024-02-04T09:29:41;11.70;99.90
20658;DHT22;10488;50.846;4.078;2024-02-04T09:32:07;11.60;99.90
20658;DHT22;10488;50.846;4.078;2024-02-04T09:34:33;11.60;99.90
20658;DHT22;10488;50.846;4.078;2024-02-04T09:36:59;11.60;99.90
20658;DHT22;10488;50.846;4.078;2024-02-04T09:39:24;11.50;99.90
20658;DHT22;10488;50.846;4.078;2024-02-04T09:41:50;11.50;99.90
20658;DHT22;10488;50.846;4.078;2024-02-04T09:44:16;11.50;99.90
20658;DHT22;10488;50.846;4.078;2024-02-04T09:46:42;11.50;99.90
20658;DHT22;10488;50.846;4.078;2024-02-04T09:49:09;11.60;99.90
20658;DHT22;10488;50.846;4.078;2024-02-04T09:51:34;11.70;99.90
20658;DHT22;10488;50.846;4.078;2024-02-04T09:54:04;11.70;99.90
20658;DHT22;10488;50.846;4.078;2024-02-04T09:56:33;11.80;99.90
20658;DHT22;10488;50.846;4.078;2024-02-04T09:59:00;11.80;99.90
20658;DHT22;10488;50.846;4.078;2024-02-04T10:01:26;11.80;99.90
20658;DHT22;10488;50.846;4.078;2024-02-04T10:03:52;11.70;99.90
20658;DHT22;10488;50.846;4.078;2024-02-04T10:06:18;11.70;99.90
20658;DHT22;10488;50.846;4.078;2024-02-04T10:08:43;11.60;99.90
20658;DHT22;10488;50.846;4.078;2024-02-04T10:11:10;11.80;99.90
20658;DHT22;10488;50.846;4.078;2024-02-04T10:13:46;11.70;99.90
20658;DHT22;10488;50.846;4.078;2024-02-04T10:16:13;11.90;99.90
20658;DHT22;10488;50.846;4.078;2024-02-04T10:18:45;11.90;99.90
20658;DHT22;10488;50.846;4.078;2024-02-04T10:21:18;11.90;99.90
20658;DHT22;10488;50.846;4.078;2024-02-04T10:23:45;11.90;99.90
20658;DHT22;10488;50.846;4.078;2024-02-04T10:26:11;12.10;99.90
20658;DHT22;10488;50.846;4.078;2024-02-04T10:28:38;12.10;99.90
20658;DHT22;10488;50.846;4.078;2024-02-04T10:31:04;12.10;99.90
20658;DHT22;10488;50.846;4.078;2024-02-04T10:33:32;12.10;99.90
20658;DHT22;10488;50.846;4.078;2024-02-04T10:35:58;12.00;99.90
20658;DHT22;10488;50.846;4.078;2024-02-04T10:38:24;11.90;99.90
20658;DHT22;10488;50.846;4.078;2024-02-04T10:40:53;12.00;99.90
20658;DHT22;10488;50.846;4.078;2024-02-04T10:43:20;12.00;99.90
20658;DHT22;10488;50.846;4.078;2024-02-04T10:45:48;12.00;99.90
20658;DHT22;10488;50.846;4.078;2024-02-04T10:48:20;11.90;99.90
20658;DHT22;10488;50.846;4.078;2024-02-04T10:50:49;12.00;99.90
20658;DHT22;10488;50.846;4.078;2024-02-04T10:53:19;12.00;99.90
20658;DHT22;10488;50.846;4.078;2024-02-04T10:55:47;12.10;99.90
20658;DHT22;10488;50.846;4.078;2024-02-04T10:58:15;12.00;99.90
20658;DHT22;10488;50.846;4.078;2024-02-04T11:00:41;11.90;99.90
20658;DHT22;10488;50.846;4.078;2024-02-04T11:03:07;11.80;99.90
20658;DHT22;10488;50.846;4.078;2024-02-04T11:05:34;11.80;99.90
20658;DHT22;10488;50.846;4.078;2024-02-04T11:08:03;11.80;99.90
20658;DHT22;10488;50.846;4.078;2024-02-04T11:10:30;12.00;99.90
20658;DHT22;10488;50.846;4.078;2024-02-04T11:12:57;12.00;99.90
20658;DHT22;10488;50.846;4.078;2024-02-04T11:15:26;12.00;99.90
20658;DHT22;10488;50.846;4.078;2024-02-04T11:23:41;12.00;99.90
20658;DHT22;10488;50.846;4.078;2024-02-04T11:26:09;12.00;99.90
20658;DHT22;10488;50.846;4.078;2024-02-04T11:28:35;12.10;99.90
20658;DHT22;10488;50.846;4.078;2024-02-04T11:31:01;12.00;99.90
20658;DHT22;10488;50.846;4.078;2024-02-04T11:33:27;12.00;99.90
20658;DHT22;10488;50.846;4.078;2024-02-04T11:36:03;12.10;99.90
20658;DHT22;10488;50.846;4.078;2024-02-04T11:38:31;12.30;99.90
20658;DHT22;10488;50.846;4.078;2024-02-04T11:40:57;12.20;99.90
20658;DHT22;10488;50.846;4.078;2024-02-04T11:43:23;12.20;99.90
20658;DHT22;10488;50.846;4.078;2024-02-04T11:45:52;12.10;99.90
20658;DHT22;10488;50.846;4.078;2024-02-04T11:48:19;12.20;99.90
20658;DHT22;10488;50.846;4.078;2024-02-04T11:50:52;12.20;99.90
20658;DHT22;10488;50.846;4.078;2024-02-04T11:53:18;12.20;99.90
20658;DHT22;10488;50.846;4.078;2024-02-04T11:55:45;12.10;99.90
20658;DHT22;10488;50.846;4.078;2024-02-04T11:58:11;11.90;99.90
20658;DHT22;10488;50.846;4.078;2024-02-04T12:00:37;11.90;99.90
20658;DHT22;10488;50.846;4.078;2024-02-04T12:03:04;11.80;99.90
20658;DHT22;10488;50.846;4.078;2024-02-04T12:05:37;11.80;99.90
20658;DHT22;10488;50.846;4.078;2024-02-04T12:08:07;11.80;99.90
20658;DHT22;10488;50.846;4.078;2024-02-04T12:10:35;11.80;99.90
20658;DHT22;10488;50.846;4.078;2024-02-04T12:13:05;11.70;99.90
20658;DHT22;10488;50.846;4.078;2024-02-04T12:15:35;11.70;99.90
20658;DHT22;10488;50.846;4.078;2024-02-04T12:18:08;11.80;99.90
20658;DHT22;10488;50.846;4.078;2024-02-04T12:20:33;11.80;99.90
20658;DHT22;10488;50.846;4.078;2024-02-04T12:23:01;12.00;99.90
20658;DHT22;10488;50.846;4.078;2024-02-04T12:25:27;11.90;99.90
20658;DHT22;10488;50.846;4.078;2024-02-04T12:27:55;12.00;99.90
20658;DHT22;10488;50.846;4.078;2024-02-04T12:30:20;12.00;99.90
20658;DHT22;10488;50.846;4.078;2024-02-04T12:32:58;12.00;99.90
20658;DHT22;10488;50.846;4.078;2024-02-04T12:35:25;12.00;99.90
20658;DHT22;10488;50.846;4.078;2024-02-04T12:37:52;12.00;99.90
20658;DHT22;10488;50.846;4.078;2024-02-04T12:40:27;12.00;99.90
20658;DHT22;10488;50.846;4.078;2024-02-04T12:42:54;12.00;99.90
20658;DHT22;10488;50.846;4.078;2024-02-04T12:45:21;12.00;99.90
20658;DHT22;10488;50.846;4.078;2024-02-04T12:47:52;11.90;99.90
20658;DHT22;10488;50.846;4.078;2024-02-04T12:50:19;11.90;99.90
20658;DHT22;10488;50.846;4.078;2024-02-04T12:52:49;11.90;99.90
20658;DHT22;10488;50.846;4.078;2024-02-04T12:55:26;12.00;99.90
20658;DHT22;10488;50.846;4.078;2024-02-04T12:58:07;12.00;99.90
20658;DHT22;10488;50.846;4.078;2024-02-04T13:00:37;11.90;99.90
20658;DHT22;10488;50.846;4.078;2024-02-04T13:03:04;11.90;99.90
20658;DHT22;10488;50.846;4.078;2024-02-04T13:05:30;11.90;99.90
20658;DHT22;10488;50.846;4.078;2024-02-04T13:08:00;12.10;99.90
20658;DHT22;10488;50.846;4.078;2024-02-04T13:10:28;12.20;99.90
20658;DHT22;10488;50.846;4.078;2024-02-04T13:13:09;12.00;99.90
20658;DHT22;10488;50.846;4.078;2024-02-04T13:15:43;12.30;99.90
20658;DHT22;10488;50.846;4.078;2024-02-04T13:18:10;12.20;99.90
20658;DHT22;10488;50.846;4.078;2024-02-04T13:20:37;12.10;99.90
20658;DHT22;10488;50.846;4.078;2024-02-04T13:23:05;12.00;99.90
20658;DHT22;10488;50.846;4.078;2024-02-04T13:25:31;11.90;99.90
20658;DHT22;10488;50.846;4.078;2024-02-04T13:27:57;12.00;99.90
20658;DHT22;10488;50.846;4.078;2024-02-04T13:30:23;11.90;99.90
20658;DHT22;10488;50.846;4.078;2024-02-04T13:32:48;11.80;99.90
20658;DHT22;10488;50.846;4.078;2024-02-04T13:35:14;11.90;99.90
20658;DHT22;10488;50.846;4.078;2024-02-04T13:37:44;11.80;99.90
20658;DHT22;10488;50.846;4.078;2024-02-04T13:40:20;11.90;99.90
20658;DHT22;10488;50.846;4.078;2024-02-04T13:42:47;11.80;99.90
20658;DHT22;10488;50.846;4.078;2024-02-04T13:45:13;11.80;99.90
20658;DHT22;10488;50.846;4.078;2024-02-04T13:47:39;11.90;99.90
20658;DHT22;10488;50.846;4.078;2024-02-04T13:50:06;11.80;99.90
20658;DHT22;10488;50.846;4.078;2024-02-04T13:52:34;11.90;99.90
20658;DHT22;10488;50.846;4.078;2024-02-04T13:54:59;11.70;99.90
20658;DHT22;10488;50.846;4.078;2024-02-04T13:57:25;11.80;99.90
20658;DHT22;10488;50.846;4.078;2024-02-04T13:59:51;11.70;99.90
20658;DHT22;10488;50.846;4.078;2024-02-04T14:02:16;11.80;99.90
20658;DHT22;10488;50.846;4.078;2024-02-04T14:04:42;11.80;99.90
20658;DHT22;10488;50.846;4.078;2024-02-04T14:07:08;11.80;99.90
20658;DHT22;10488;50.846;4.078;2024-02-04T14:09:34;11.80;99.90
20658;DHT22;10488;50.846;4.078;2024-02-04T14:12:02;11.80;99.90
20658;DHT22;10488;50.846;4.078;2024-02-04T14:14:28;11.70;99.90
20658;DHT22;10488;50.846;4.078;2024-02-04T14:16:54;11.70;99.90
20658;DHT22;10488;50.846;4.078;2024-02-04T14:19:20;11.80;99.90
20658;DHT22;10488;50.846;4.078;2024-02-04T14:21:46;11.80;99.90
20658;DHT22;10488;50.846;4.078;2024-02-04T14:24:11;11.70;99.90
20658;DHT22;10488;50.846;4.078;2024-02-04T14:26:38;11.70;99.90
20658;DHT22;10488;50.846;4.078;2024-02-04T14:29:04;11.70;99.90
20658;DHT22;10488;50.846;4.078;2024-02-04T14:31:29;11.80;99.90
20658;DHT22;10488;50.846;4.078;2024-02-04T14:33:55;11.80;99.90
20658;DHT22;10488;50.846;4.078;2024-02-04T14:36:21;11.80;99.90
20658;DHT22;10488;50.846;4.078;2024-02-04T14:38:47;11.80;99.90
20658;DHT22;10488;50.846;4.078;2024-02-04T14:41:13;12.00;99.90
20658;DHT22;10488;50.846;4.078;2024-02-04T14:43:38;11.90;99.90
20658;DHT22;10488;50.846;4.078;2024-02-04T14:46:04;11.80;99.90
20658;DHT22;10488;50.846;4.078;2024-02-04T14:48:30;11.90;99.90
20658;DHT22;10488;50.846;4.078;2024-02-04T14:50:56;12.00;99.90
20658;DHT22;10488;50.846;4.078;2024-02-04T14:53:23;11.80;99.90
20658;DHT22;10488;50.846;4.078;2024-02-04T14:55:49;11.80;99.90
20658;DHT22;10488;50.846;4.078;2024-02-04T14:58:15;11.80;99.90
20658;DHT22;10488;50.846;4.078;2024-02-04T15:00:40;11.80;99.90
20658;DHT22;10488;50.846;4.078;2024-02-04T15:03:06;11.90;99.90
20658;DHT22;10488;50.846;4.078;2024-02-04T15:05:31;11.90;99.90
20658;DHT22;10488;50.846;4.078;2024-02-04T15:07:57;12.00;99.90
20658;DHT22;10488;50.846;4.078;2024-02-04T15:10:23;12.00;99.90
20658;DHT22;10488;50.846;4.078;2024-02-04T15:12:49;11.90;99.90
20658;DHT22;10488;50.846;4.078;2024-02-04T15:15:18;11.90;99.90
20658;DHT22;10488;50.846;4.078;2024-02-04T15:17:44;11.80;99.90
20658;DHT22;10488;50.846;4.078;2024-02-04T15:20:10;11.90;99.90
20658;DHT22;10488;50.846;4.078;2024-02-04T15:22:37;12.00;99.90
20658;DHT22;10488;50.846;4.078;2024-02-04T15:25:05;11.90;99.90
20658;DHT22;10488;50.846;4.078;2024-02-04T15:27:31;11.90;99.90
20658;DHT22;10488;50.846;4.078;2024-02-04T15:29:57;12.10;99.90
20658;DHT22;10488;50.846;4.078;2024-02-04T15:32:23;12.10;99.90
20658;DHT22;10488;50.846;4.078;2024-02-04T15:34:49;12.10;99.90